sensor_id;sensor_type;location;lat;lon;timestamp;P1;durP1;ratioP1;P2;durP2;ratioP2
44987;SDS011;35735;52.226;21.254;2022-09-24T00:00:37;14.45;;;9.75;;
44987;SDS011;35735;52.226;21.254;2022-09-24T00:05:38;14.30;;;10.18;;
44987;SDS011;35735;52.226;21.254;2022-09-24T00:10:40;13.77;;;10.07;;
44987;SDS011;35735;52.226;21.254;2022-09-24T00:15:44;16.40;;;10.73;;
44987;SDS011;35735;52.226;21.254;2022-09-24T00:20:48;14.13;;;10.25;;
44987;SDS011;35735;52.226;21.254;2022-09-24T00:25:49;15.82;;;10.52;;
44987;SDS011;35735;52.226;21.254;2022-09-24T00:30:49;14.50;;;10.45;;
44987;SDS011;35735;52.226;21.254;2022-09-24T00:35:50;15.65;;;10.80;;
44987;SDS011;35735;52.226;21.254;2022-09-24T00:40:50;13.73;;;9.95;;
44987;SDS011;35735;52.226;21.254;2022-09-24T00:45:51;13.82;;;10.25;;
44987;SDS011;35735;52.226;21.254;2022-09-24T00:50:56;14.07;;;10.50;;
44987;SDS011;35735;52.226;21.254;2022-09-24T00:55:57;14.60;;;9.95;;
44987;SDS011;35735;52.226;21.254;2022-09-24T01:01:03;15.18;;;11.10;;
44987;SDS011;35735;52.226;21.254;2022-09-24T01:06:09;15.73;;;10.20;;
44987;SDS011;35735;52.226;21.254;2022-09-24T01:11:23;13.25;;;9.95;;
44987;SDS011;35735;52.226;21.254;2022-09-24T01:17:01;13.70;;;10.25;;
44987;SDS011;35735;52.226;21.254;2022-09-24T01:33:05;15.85;;;10.65;;
44987;SDS011;35735;52.226;21.254;2022-09-24T01:38:13;18.20;;;11.25;;
44987;SDS011;35735;52.226;21.254;2022-09-24T01:43:21;17.70;;;10.90;;
44987;SDS011;35735;52.226;21.254;2022-09-24T01:48:25;19.62;;;11.40;;
44987;SDS011;35735;52.226;21.254;2022-09-24T01:53:27;18.67;;;11.05;;
44987;SDS011;35735;52.226;21.254;2022-09-24T01:58:38;15.70;;;10.85;;
44987;SDS011;35735;52.226;21.254;2022-09-24T02:03:49;15.68;;;10.52;;
44987;SDS011;35735;52.226;21.254;2022-09-24T02:08:55;18.73;;;11.35;;
44987;SDS011;35735;52.226;21.254;2022-09-24T02:19:07;15.65;;;10.98;;
44987;SDS011;35735;52.226;21.254;2022-09-24T02:29:15;15.63;;;11.00;;
44987;SDS011;35735;52.226;21.254;2022-09-24T02:34:20;16.77;;;11.50;;
44987;SDS011;35735;52.226;21.254;2022-09-24T02:39:27;14.87;;;10.52;;
44987;SDS011;35735;52.226;21.254;2022-09-24T02:44:27;24.27;;;12.18;;
44987;SDS011;35735;52.226;21.254;2022-09-24T02:49:28;21.40;;;11.90;;
44987;SDS011;35735;52.226;21.254;2022-09-24T02:54:29;16.85;;;11.25;;
44987;SDS011;35735;52.226;21.254;2022-09-24T02:59:30;18.83;;;11.15;;
44987;SDS011;35735;52.226;21.254;2022-09-24T03:04:30;16.85;;;11.50;;
44987;SDS011;35735;52.226;21.254;2022-09-24T03:09:31;18.27;;;11.45;;
44987;SDS011;35735;52.226;21.254;2022-09-24T03:14:31;19.83;;;11.20;;
44987;SDS011;35735;52.226;21.254;2022-09-24T03:19:32;19.92;;;11.98;;
44987;SDS011;35735;52.226;21.254;2022-09-24T03:24:32;17.08;;;10.60;;
44987;SDS011;35735;52.226;21.254;2022-09-24T03:29:33;17.25;;;11.70;;
44987;SDS011;35735;52.226;21.254;2022-09-24T03:34:33;16.00;;;10.88;;
44987;SDS011;35735;52.226;21.254;2022-09-24T03:39:34;17.58;;;11.18;;
44987;SDS011;35735;52.226;21.254;2022-09-24T03:44:35;16.02;;;10.77;;
44987;SDS011;35735;52.226;21.254;2022-09-24T03:49:35;17.17;;;11.48;;
44987;SDS011;35735;52.226;21.254;2022-09-24T03:54:36;18.05;;;11.63;;
44987;SDS011;35735;52.226;21.254;2022-09-24T03:59:36;21.05;;;11.27;;
44987;SDS011;35735;52.226;21.254;2022-09-24T04:04:37;15.45;;;10.40;;
44987;SDS011;35735;52.226;21.254;2022-09-24T04:09:38;16.15;;;10.68;;
44987;SDS011;35735;52.226;21.254;2022-09-24T04:14:38;19.17;;;10.55;;
44987;SDS011;35735;52.226;21.254;2022-09-24T04:19:39;14.43;;;10.13;;
44987;SDS011;35735;52.226;21.254;2022-09-24T04:24:39;19.55;;;10.85;;
44987;SDS011;35735;52.226;21.254;2022-09-24T04:29:40;18.37;;;10.85;;
44987;SDS011;35735;52.226;21.254;2022-09-24T04:34:40;16.05;;;11.35;;
44987;SDS011;35735;52.226;21.254;2022-09-24T04:39:41;19.87;;;13.32;;
44987;SDS011;35735;52.226;21.254;2022-09-24T04:44:41;23.35;;;13.85;;
44987;SDS011;35735;52.226;21.254;2022-09-24T04:49:42;20.98;;;13.93;;
44987;SDS011;35735;52.226;21.254;2022-09-24T04:54:43;22.73;;;14.10;;
44987;SDS011;35735;52.226;21.254;2022-09-24T04:59:44;20.25;;;12.63;;
44987;SDS011;35735;52.226;21.254;2022-09-24T05:04:45;20.37;;;13.62;;
44987;SDS011;35735;52.226;21.254;2022-09-24T05:09:45;24.85;;;13.30;;
44987;SDS011;35735;52.226;21.254;2022-09-24T05:14:46;19.85;;;12.43;;
44987;SDS011;35735;52.226;21.254;2022-09-24T05:19:46;21.98;;;16.62;;
44987;SDS011;35735;52.226;21.254;2022-09-24T05:24:47;24.98;;;17.27;;
44987;SDS011;35735;52.226;21.254;2022-09-24T05:29:47;22.73;;;16.15;;
44987;SDS011;35735;52.226;21.254;2022-09-24T05:34:48;25.90;;;16.90;;
44987;SDS011;35735;52.226;21.254;2022-09-24T05:39:48;26.48;;;16.92;;
44987;SDS011;35735;52.226;21.254;2022-09-24T05:44:49;26.00;;;17.48;;
44987;SDS011;35735;52.226;21.254;2022-09-24T05:49:49;26.77;;;17.48;;
44987;SDS011;35735;52.226;21.254;2022-09-24T05:54:50;23.65;;;17.17;;
44987;SDS011;35735;52.226;21.254;2022-09-24T05:59:51;27.90;;;18.02;;
44987;SDS011;35735;52.226;21.254;2022-09-24T06:04:51;27.55;;;17.87;;
44987;SDS011;35735;52.226;21.254;2022-09-24T06:09:52;23.20;;;17.95;;
44987;SDS011;35735;52.226;21.254;2022-09-24T06:14:52;27.42;;;18.37;;
44987;SDS011;35735;52.226;21.254;2022-09-24T06:19:53;29.45;;;18.90;;
44987;SDS011;35735;52.226;21.254;2022-09-24T06:24:53;27.25;;;18.85;;
44987;SDS011;35735;52.226;21.254;2022-09-24T06:29:54;27.08;;;19.02;;
44987;SDS011;35735;52.226;21.254;2022-09-24T06:34:54;30.85;;;20.33;;
44987;SDS011;35735;52.226;21.254;2022-09-24T06:39:55;29.95;;;20.85;;
44987;SDS011;35735;52.226;21.254;2022-09-24T06:44:56;25.75;;;20.23;;
44987;SDS011;35735;52.226;21.254;2022-09-24T06:49:56;26.75;;;19.85;;
44987;SDS011;35735;52.226;21.254;2022-09-24T06:54:57;27.42;;;19.45;;
44987;SDS011;35735;52.226;21.254;2022-09-24T06:59:57;27.13;;;19.55;;
44987;SDS011;35735;52.226;21.254;2022-09-24T07:04:58;30.50;;;18.52;;
44987;SDS011;35735;52.226;21.254;2022-09-24T07:09:59;27.20;;;19.10;;
44987;SDS011;35735;52.226;21.254;2022-09-24T07:15:02;25.77;;;18.50;;
44987;SDS011;35735;52.226;21.254;2022-09-24T07:20:03;26.00;;;17.92;;
44987;SDS011;35735;52.226;21.254;2022-09-24T07:25:06;26.20;;;15.85;;
44987;SDS011;35735;52.226;21.254;2022-09-24T07:30:09;25.90;;;17.75;;
44987;SDS011;35735;52.226;21.254;2022-09-24T07:35:10;22.17;;;16.02;;
44987;SDS011;35735;52.226;21.254;2022-09-24T07:40:10;25.70;;;16.62;;
44987;SDS011;35735;52.226;21.254;2022-09-24T07:45:11;17.85;;;15.18;;
44987;SDS011;35735;52.226;21.254;2022-09-24T07:50:12;20.27;;;16.02;;
44987;SDS011;35735;52.226;21.254;2022-09-24T07:55:12;23.35;;;14.38;;
44987;SDS011;35735;52.226;21.254;2022-09-24T08:00:13;21.42;;;13.20;;
44987;SDS011;35735;52.226;21.254;2022-09-24T08:05:15;17.62;;;14.13;;
44987;SDS011;35735;52.226;21.254;2022-09-24T08:10:15;15.55;;;10.98;;
44987;SDS011;35735;52.226;21.254;2022-09-24T08:15:16;12.85;;;10.02;;
44987;SDS011;35735;52.226;21.254;2022-09-24T08:20:17;15.05;;;10.18;;
44987;SDS011;35735;52.226;21.254;2022-09-24T08:25:18;11.07;;;8.15;;
44987;SDS011;35735;52.226;21.254;2022-09-24T08:30:18;12.75;;;8.90;;
44987;SDS011;35735;52.226;21.254;2022-09-24T08:35:19;11.40;;;8.25;;
44987;SDS011;35735;52.226;21.254;2022-09-24T08:40:21;10.77;;;7.25;;
44987;SDS011;35735;52.226;21.254;2022-09-24T08:45:24;9.32;;;7.20;;
44987;SDS011;35735;52.226;21.254;2022-09-24T08:50:28;6.05;;;5.15;;
44987;SDS011;35735;52.226;21.254;2022-09-24T08:55:38;6.53;;;4.78;;
44987;SDS011;35735;52.226;21.254;2022-09-24T09:05:52;5.20;;;3.50;;
44987;SDS011;35735;52.226;21.254;2022-09-24T09:11:00;3.53;;;2.75;;
44987;SDS011;35735;52.226;21.254;2022-09-24T09:16:08;3.25;;;2.58;;
44987;SDS011;35735;52.226;21.254;2022-09-24T09:26:55;7.57;;;3.80;;
44987;SDS011;35735;52.226;21.254;2022-09-24T09:32:00;5.12;;;3.15;;
44987;SDS011;35735;52.226;21.254;2022-09-24T09:43:08;5.40;;;2.50;;
44987;SDS011;35735;52.226;21.254;2022-09-24T09:48:10;3.72;;;2.92;;
44987;SDS011;35735;52.226;21.254;2022-09-24T09:53:22;5.10;;;3.47;;
44987;SDS011;35735;52.226;21.254;2022-09-24T09:58:26;5.97;;;3.75;;
44987;SDS011;35735;52.226;21.254;2022-09-24T10:03:29;5.80;;;3.28;;
44987;SDS011;35735;52.226;21.254;2022-09-24T10:08:34;3.75;;;3.08;;
44987;SDS011;35735;52.226;21.254;2022-09-24T10:13:34;5.15;;;3.53;;
44987;SDS011;35735;52.226;21.254;2022-09-24T10:18:42;6.32;;;4.18;;
44987;SDS011;35735;52.226;21.254;2022-09-24T10:23:46;4.72;;;4.07;;
44987;SDS011;35735;52.226;21.254;2022-09-24T10:28:47;7.22;;;4.32;;
44987;SDS011;35735;52.226;21.254;2022-09-24T10:33:52;5.75;;;4.28;;
44987;SDS011;35735;52.226;21.254;2022-09-24T10:44:11;2.33;;;2.00;;
44987;SDS011;35735;52.226;21.254;2022-09-24T10:49:27;2.62;;;1.58;;
44987;SDS011;35735;52.226;21.254;2022-09-24T11:05:23;3.65;;;2.00;;
44987;SDS011;35735;52.226;21.254;2022-09-24T11:10:46;3.60;;;1.85;;
44987;SDS011;35735;52.226;21.254;2022-09-24T11:27:03;3.35;;;1.90;;
44987;SDS011;35735;52.226;21.254;2022-09-24T11:32:24;2.42;;;2.20;;
44987;SDS011;35735;52.226;21.254;2022-09-24T11:37:38;4.82;;;2.17;;
44987;SDS011;35735;52.226;21.254;2022-09-24T11:42:59;3.53;;;2.17;;
44987;SDS011;35735;52.226;21.254;2022-09-24T11:53:40;3.62;;;2.20;;
44987;SDS011;35735;52.226;21.254;2022-09-24T11:58:49;3.65;;;2.60;;
44987;SDS011;35735;52.226;21.254;2022-09-24T12:03:57;3.75;;;2.20;;
44987;SDS011;35735;52.226;21.254;2022-09-24T12:14:57;4.82;;;2.60;;
44987;SDS011;35735;52.226;21.254;2022-09-24T12:20:07;3.53;;;2.35;;
44987;SDS011;35735;52.226;21.254;2022-09-24T12:25:17;3.47;;;2.35;;
44987;SDS011;35735;52.226;21.254;2022-09-24T12:30:24;3.62;;;2.33;;
44987;SDS011;35735;52.226;21.254;2022-09-24T12:46:47;4.15;;;2.05;;
44987;SDS011;35735;52.226;21.254;2022-09-24T12:51:56;4.97;;;2.00;;
44987;SDS011;35735;52.226;21.254;2022-09-24T12:57:03;4.87;;;2.10;;
44987;SDS011;35735;52.226;21.254;2022-09-24T13:02:15;2.67;;;1.60;;
44987;SDS011;35735;52.226;21.254;2022-09-24T13:12:36;2.08;;;1.87;;
44987;SDS011;35735;52.226;21.254;2022-09-24T13:17:37;2.15;;;1.67;;
44987;SDS011;35735;52.226;21.254;2022-09-24T13:22:37;2.67;;;1.42;;
44987;SDS011;35735;52.226;21.254;2022-09-24T13:27:38;2.58;;;1.55;;
44987;SDS011;35735;52.226;21.254;2022-09-24T13:32:56;2.62;;;1.70;;
44987;SDS011;35735;52.226;21.254;2022-09-24T13:38:04;4.10;;;1.60;;
44987;SDS011;35735;52.226;21.254;2022-09-24T13:43:36;2.10;;;1.42;;
44987;SDS011;35735;52.226;21.254;2022-09-24T13:48:50;2.28;;;1.52;;
44987;SDS011;35735;52.226;21.254;2022-09-24T13:54:01;2.45;;;1.50;;
44987;SDS011;35735;52.226;21.254;2022-09-24T13:59:10;1.75;;;1.55;;
44987;SDS011;35735;52.226;21.254;2022-09-24T14:04:19;3.08;;;1.60;;
44987;SDS011;35735;52.226;21.254;2022-09-24T14:14:33;2.83;;;1.60;;
44987;SDS011;35735;52.226;21.254;2022-09-24T14:19:34;2.28;;;1.77;;
44987;SDS011;35735;52.226;21.254;2022-09-24T14:24:39;5.50;;;1.90;;
44987;SDS011;35735;52.226;21.254;2022-09-24T14:29:49;3.22;;;2.00;;
44987;SDS011;35735;52.226;21.254;2022-09-24T14:35:04;5.47;;;2.20;;
44987;SDS011;35735;52.226;21.254;2022-09-24T14:40:18;3.92;;;2.28;;
44987;SDS011;35735;52.226;21.254;2022-09-24T14:45:21;3.40;;;2.20;;
44987;SDS011;35735;52.226;21.254;2022-09-24T14:50:31;6.62;;;2.30;;
44987;SDS011;35735;52.226;21.254;2022-09-24T14:55:38;4.72;;;2.05;;
44987;SDS011;35735;52.226;21.254;2022-09-24T15:00:54;4.90;;;2.60;;
44987;SDS011;35735;52.226;21.254;2022-09-24T15:06:15;3.22;;;2.25;;
44987;SDS011;35735;52.226;21.254;2022-09-24T15:11:22;4.53;;;2.72;;
44987;SDS011;35735;52.226;21.254;2022-09-24T15:21:31;4.15;;;2.62;;
44987;SDS011;35735;52.226;21.254;2022-09-24T15:26:33;10.05;;;2.72;;
44987;SDS011;35735;52.226;21.254;2022-09-24T15:31:35;5.40;;;2.40;;
44987;SDS011;35735;52.226;21.254;2022-09-24T15:36:35;5.15;;;2.53;;
44987;SDS011;35735;52.226;21.254;2022-09-24T15:41:36;3.58;;;2.15;;
44987;SDS011;35735;52.226;21.254;2022-09-24T15:46:37;4.85;;;2.17;;
44987;SDS011;35735;52.226;21.254;2022-09-24T15:51:37;8.68;;;3.20;;
44987;SDS011;35735;52.226;21.254;2022-09-24T15:56:39;6.93;;;3.30;;
44987;SDS011;35735;52.226;21.254;2022-09-24T16:01:40;10.02;;;3.35;;
44987;SDS011;35735;52.226;21.254;2022-09-24T16:06:41;7.03;;;4.22;;
44987;SDS011;35735;52.226;21.254;2022-09-24T16:11:41;7.35;;;3.28;;
44987;SDS011;35735;52.226;21.254;2022-09-24T16:16:42;10.57;;;6.78;;
44987;SDS011;35735;52.226;21.254;2022-09-24T16:21:43;15.48;;;10.98;;
44987;SDS011;35735;52.226;21.254;2022-09-24T16:26:43;24.83;;;14.38;;
44987;SDS011;35735;52.226;21.254;2022-09-24T16:31:44;24.17;;;14.40;;
44987;SDS011;35735;52.226;21.254;2022-09-24T16:36:45;28.10;;;16.20;;
44987;SDS011;35735;52.226;21.254;2022-09-24T16:41:46;41.25;;;20.98;;
44987;SDS011;35735;52.226;21.254;2022-09-24T16:46:48;35.80;;;21.00;;
44987;SDS011;35735;52.226;21.254;2022-09-24T16:51:48;37.17;;;23.05;;
44987;SDS011;35735;52.226;21.254;2022-09-24T16:56:49;32.47;;;20.75;;
44987;SDS011;35735;52.226;21.254;2022-09-24T17:01:50;38.10;;;21.17;;
44987;SDS011;35735;52.226;21.254;2022-09-24T17:06:54;24.55;;;16.42;;
44987;SDS011;35735;52.226;21.254;2022-09-24T17:11:56;16.23;;;11.73;;
44987;SDS011;35735;52.226;21.254;2022-09-24T17:16:56;19.08;;;12.75;;
44987;SDS011;35735;52.226;21.254;2022-09-24T17:21:57;18.35;;;11.55;;
44987;SDS011;35735;52.226;21.254;2022-09-24T17:26:57;12.73;;;7.97;;
44987;SDS011;35735;52.226;21.254;2022-09-24T17:31:58;11.65;;;7.03;;
44987;SDS011;35735;52.226;21.254;2022-09-24T17:36:59;16.77;;;8.88;;
44987;SDS011;35735;52.226;21.254;2022-09-24T17:41:59;12.98;;;8.75;;
44987;SDS011;35735;52.226;21.254;2022-09-24T17:47:00;24.58;;;14.82;;
44987;SDS011;35735;52.226;21.254;2022-09-24T17:52:01;22.80;;;15.70;;
44987;SDS011;35735;52.226;21.254;2022-09-24T17:57:01;18.25;;;14.27;;
44987;SDS011;35735;52.226;21.254;2022-09-24T18:02:02;25.10;;;15.95;;
44987;SDS011;35735;52.226;21.254;2022-09-24T18:07:02;28.55;;;20.35;;
44987;SDS011;35735;52.226;21.254;2022-09-24T18:12:03;29.40;;;21.50;;
44987;SDS011;35735;52.226;21.254;2022-09-24T18:17:04;41.63;;;30.40;;
44987;SDS011;35735;52.226;21.254;2022-09-24T18:22:04;57.97;;;40.40;;
44987;SDS011;35735;52.226;21.254;2022-09-24T18:27:05;60.90;;;43.42;;
44987;SDS011;35735;52.226;21.254;2022-09-24T18:32:05;63.53;;;34.53;;
44987;SDS011;35735;52.226;21.254;2022-09-24T18:37:06;59.83;;;35.38;;
44987;SDS011;35735;52.226;21.254;2022-09-24T18:42:06;58.83;;;34.33;;
44987;SDS011;35735;52.226;21.254;2022-09-24T18:47:07;75.40;;;33.67;;
44987;SDS011;35735;52.226;21.254;2022-09-24T18:52:07;80.87;;;34.10;;
44987;SDS011;35735;52.226;21.254;2022-09-24T18:57:08;71.50;;;36.75;;
44987;SDS011;35735;52.226;21.254;2022-09-24T19:02:12;66.62;;;37.78;;
44987;SDS011;35735;52.226;21.254;2022-09-24T19:07:13;68.60;;;37.83;;
44987;SDS011;35735;52.226;21.254;2022-09-24T19:12:14;68.70;;;39.42;;
44987;SDS011;35735;52.226;21.254;2022-09-24T19:17:14;71.15;;;41.60;;
44987;SDS011;35735;52.226;21.254;2022-09-24T19:22:15;67.00;;;42.78;;
44987;SDS011;35735;52.226;21.254;2022-09-24T19:27:15;70.10;;;45.05;;
44987;SDS011;35735;52.226;21.254;2022-09-24T19:32:16;70.10;;;46.37;;
44987;SDS011;35735;52.226;21.254;2022-09-24T19:37:16;102.75;;;51.72;;
44987;SDS011;35735;52.226;21.254;2022-09-24T19:42:17;90.72;;;50.28;;
44987;SDS011;35735;52.226;21.254;2022-09-24T19:47:17;73.45;;;47.88;;
44987;SDS011;35735;52.226;21.254;2022-09-24T19:52:18;76.85;;;49.83;;
44987;SDS011;35735;52.226;21.254;2022-09-24T19:57:18;84.93;;;51.75;;
44987;SDS011;35735;52.226;21.254;2022-09-24T20:02:19;92.88;;;54.65;;
44987;SDS011;35735;52.226;21.254;2022-09-24T20:07:20;82.43;;;55.12;;
44987;SDS011;35735;52.226;21.254;2022-09-24T20:12:20;85.47;;;53.85;;
44987;SDS011;35735;52.226;21.254;2022-09-24T20:17:21;79.57;;;52.83;;
44987;SDS011;35735;52.226;21.254;2022-09-24T20:22:21;81.57;;;51.72;;
44987;SDS011;35735;52.226;21.254;2022-09-24T20:27:22;77.50;;;50.88;;
44987;SDS011;35735;52.226;21.254;2022-09-24T20:32:22;77.87;;;51.90;;
44987;SDS011;35735;52.226;21.254;2022-09-24T20:37:23;77.90;;;51.13;;
44987;SDS011;35735;52.226;21.254;2022-09-24T20:42:24;78.18;;;50.25;;
44987;SDS011;35735;52.226;21.254;2022-09-24T20:47:24;80.75;;;51.53;;
44987;SDS011;35735;52.226;21.254;2022-09-24T20:52:25;75.45;;;50.53;;
44987;SDS011;35735;52.226;21.254;2022-09-24T20:57:25;76.53;;;51.40;;
44987;SDS011;35735;52.226;21.254;2022-09-24T21:02:26;78.90;;;53.38;;
44987;SDS011;35735;52.226;21.254;2022-09-24T21:07:27;85.05;;;54.30;;
44987;SDS011;35735;52.226;21.254;2022-09-24T21:12:27;73.50;;;50.97;;
44987;SDS011;35735;52.226;21.254;2022-09-24T21:17:28;75.32;;;50.47;;
44987;SDS011;35735;52.226;21.254;2022-09-24T21:22:28;73.60;;;47.80;;
44987;SDS011;35735;52.226;21.254;2022-09-24T21:27:29;71.47;;;46.88;;
44987;SDS011;35735;52.226;21.254;2022-09-24T21:32:29;77.95;;;47.50;;
44987;SDS011;35735;52.226;21.254;2022-09-24T21:37:30;69.35;;;46.22;;
44987;SDS011;35735;52.226;21.254;2022-09-24T21:42:30;66.15;;;44.63;;
44987;SDS011;35735;52.226;21.254;2022-09-24T21:47:31;69.68;;;45.72;;
44987;SDS011;35735;52.226;21.254;2022-09-24T21:52:32;69.50;;;44.00;;
44987;SDS011;35735;52.226;21.254;2022-09-24T21:57:32;69.65;;;42.15;;
44987;SDS011;35735;52.226;21.254;2022-09-24T22:02:33;65.65;;;40.65;;
44987;SDS011;35735;52.226;21.254;2022-09-24T22:07:33;58.08;;;39.20;;
44987;SDS011;35735;52.226;21.254;2022-09-24T22:12:34;59.35;;;38.30;;
44987;SDS011;35735;52.226;21.254;2022-09-24T22:17:34;57.72;;;38.33;;
44987;SDS011;35735;52.226;21.254;2022-09-24T22:22:35;61.13;;;40.10;;
44987;SDS011;35735;52.226;21.254;2022-09-24T22:27:35;65.53;;;40.20;;
44987;SDS011;35735;52.226;21.254;2022-09-24T22:32:36;65.03;;;41.03;;
44987;SDS011;35735;52.226;21.254;2022-09-24T22:37:36;61.83;;;39.08;;
44987;SDS011;35735;52.226;21.254;2022-09-24T22:42:37;64.87;;;40.92;;
44987;SDS011;35735;52.226;21.254;2022-09-24T22:47:38;57.42;;;38.47;;
44987;SDS011;35735;52.226;21.254;2022-09-24T22:52:38;66.40;;;41.45;;
44987;SDS011;35735;52.226;21.254;2022-09-24T22:57:39;62.60;;;39.92;;
44987;SDS011;35735;52.226;21.254;2022-09-24T23:02:39;65.93;;;38.92;;
44987;SDS011;35735;52.226;21.254;2022-09-24T23:07:40;68.32;;;42.03;;
44987;SDS011;35735;52.226;21.254;2022-09-24T23:12:40;75.50;;;45.30;;
44987;SDS011;35735;52.226;21.254;2022-09-24T23:17:41;79.50;;;47.58;;
44987;SDS011;35735;52.226;21.254;2022-09-24T23:22:41;69.45;;;42.90;;
44987;SDS011;35735;52.226;21.254;2022-09-24T23:27:42;62.08;;;40.47;;
44987;SDS011;35735;52.226;21.254;2022-09-24T23:32:42;65.30;;;40.12;;
44987;SDS011;35735;52.226;21.254;2022-09-24T23:37:43;65.82;;;39.60;;
44987;SDS011;35735;52.226;21.254;2022-09-24T23:42:43;59.05;;;37.70;;
44987;SDS011;35735;52.226;21.254;2022-09-24T23:47:44;59.00;;;37.30;;
44987;SDS011;35735;52.226;21.254;2022-09-24T23:52:45;53.67;;;37.28;;
44987;SDS011;35735;52.226;21.254;2022-09-24T23:57:45;55.30;;;35.70;;
